sensor_id;sensor_type;location;lat;lon;timestamp;P1;durP1;ratioP1;P2;durP2;ratioP2
43554;SDS011;35085;40.398;-3.702;2022-11-24T00:08:39;7.95;;;1.83;;
43554;SDS011;35085;40.398;-3.702;2022-11-24T00:18:49;6.90;;;1.80;;
43554;SDS011;35085;40.398;-3.702;2022-11-24T00:29:17;4.53;;;1.60;;
43554;SDS011;35085;40.398;-3.702;2022-11-24T00:39:26;7.00;;;1.73;;
43554;SDS011;35085;40.398;-3.702;2022-11-24T00:49:58;3.40;;;1.40;;
43554;SDS011;35085;40.398;-3.702;2022-11-24T01:00:06;5.18;;;1.33;;
43554;SDS011;35085;40.398;-3.702;2022-11-24T01:10:36;4.47;;;1.45;;
43554;SDS011;35085;40.398;-3.702;2022-11-24T01:20:45;6.97;;;1.63;;
43554;SDS011;35085;40.398;-3.702;2022-11-24T01:31:15;3.05;;;1.10;;
43554;SDS011;35085;40.398;-3.702;2022-11-24T01:41:25;3.53;;;1.33;;
43554;SDS011;35085;40.398;-3.702;2022-11-24T01:51:57;4.05;;;1.25;;
43554;SDS011;35085;40.398;-3.702;2022-11-24T02:02:07;4.43;;;1.45;;
43554;SDS011;35085;40.398;-3.702;2022-11-24T02:12:35;5.20;;;1.70;;
43554;SDS011;35085;40.398;-3.702;2022-11-24T02:33:20;8.18;;;1.10;;
43554;SDS011;35085;40.398;-3.702;2022-11-24T02:43:36;5.82;;;1.10;;
43554;SDS011;35085;40.398;-3.702;2022-11-24T02:54:12;4.40;;;1.42;;
43554;SDS011;35085;40.398;-3.702;2022-11-24T03:04:27;6.85;;;1.63;;
43554;SDS011;35085;40.398;-3.702;2022-11-24T03:15:02;13.68;;;2.30;;
43554;SDS011;35085;40.398;-3.702;2022-11-24T03:25:18;12.98;;;2.13;;
43554;SDS011;35085;40.398;-3.702;2022-11-24T03:35:48;8.10;;;2.20;;
43554;SDS011;35085;40.398;-3.702;2022-11-24T03:46:00;8.50;;;1.83;;
43554;SDS011;35085;40.398;-3.702;2022-11-24T03:56:32;13.25;;;2.58;;
43554;SDS011;35085;40.398;-3.702;2022-11-24T04:06:42;6.97;;;2.17;;
43554;SDS011;35085;40.398;-3.702;2022-11-24T04:17:14;8.00;;;1.98;;
43554;SDS011;35085;40.398;-3.702;2022-11-24T04:27:28;15.02;;;3.40;;
43554;SDS011;35085;40.398;-3.702;2022-11-24T04:38:01;13.63;;;3.40;;
43554;SDS011;35085;40.398;-3.702;2022-11-24T04:48:19;12.40;;;3.20;;
43554;SDS011;35085;40.398;-3.702;2022-11-24T04:58:48;12.45;;;3.63;;
43554;SDS011;35085;40.398;-3.702;2022-11-24T05:08:57;14.88;;;3.15;;
43554;SDS011;35085;40.398;-3.702;2022-11-24T05:19:26;13.18;;;3.45;;
43554;SDS011;35085;40.398;-3.702;2022-11-24T05:29:35;19.58;;;3.78;;
43554;SDS011;35085;40.398;-3.702;2022-11-24T05:40:05;16.42;;;3.17;;
43554;SDS011;35085;40.398;-3.702;2022-11-24T05:50:15;22.83;;;3.40;;
43554;SDS011;35085;40.398;-3.702;2022-11-24T06:00:46;16.15;;;3.13;;
43554;SDS011;35085;40.398;-3.702;2022-11-24T06:10:59;24.25;;;3.35;;
43554;SDS011;35085;40.398;-3.702;2022-11-24T06:21:39;11.45;;;2.78;;
43554;SDS011;35085;40.398;-3.702;2022-11-24T06:31:47;17.63;;;3.05;;
43554;SDS011;35085;40.398;-3.702;2022-11-24T06:42:18;26.48;;;5.38;;
43554;SDS011;35085;40.398;-3.702;2022-11-24T06:52:27;16.52;;;3.47;;
43554;SDS011;35085;40.398;-3.702;2022-11-24T07:02:59;19.08;;;3.75;;
43554;SDS011;35085;40.398;-3.702;2022-11-24T07:13:08;16.30;;;4.30;;
43554;SDS011;35085;40.398;-3.702;2022-11-24T07:23:37;20.00;;;3.88;;
43554;SDS011;35085;40.398;-3.702;2022-11-24T07:33:50;19.63;;;3.88;;
43554;SDS011;35085;40.398;-3.702;2022-11-24T07:44:21;16.60;;;4.03;;
43554;SDS011;35085;40.398;-3.702;2022-11-24T07:54:31;20.45;;;4.57;;
43554;SDS011;35085;40.398;-3.702;2022-11-24T08:05:00;23.65;;;5.05;;
43554;SDS011;35085;40.398;-3.702;2022-11-24T08:15:10;20.35;;;4.43;;
43554;SDS011;35085;40.398;-3.702;2022-11-24T08:25:41;19.58;;;5.35;;
43554;SDS011;35085;40.398;-3.702;2022-11-24T08:35:49;21.85;;;5.55;;
43554;SDS011;35085;40.398;-3.702;2022-11-24T08:46:19;20.90;;;4.65;;
43554;SDS011;35085;40.398;-3.702;2022-11-24T08:56:28;18.25;;;4.70;;
43554;SDS011;35085;40.398;-3.702;2022-11-24T09:06:58;23.02;;;4.85;;
43554;SDS011;35085;40.398;-3.702;2022-11-24T09:17:07;18.25;;;4.10;;
43554;SDS011;35085;40.398;-3.702;2022-11-24T09:27:37;29.73;;;5.97;;
43554;SDS011;35085;40.398;-3.702;2022-11-24T09:37:47;21.45;;;6.22;;
43554;SDS011;35085;40.398;-3.702;2022-11-24T09:48:24;17.35;;;6.43;;
43554;SDS011;35085;40.398;-3.702;2022-11-24T09:58:41;26.48;;;7.43;;
43554;SDS011;35085;40.398;-3.702;2022-11-24T10:20:08;30.13;;;12.00;;
43554;SDS011;35085;40.398;-3.702;2022-11-24T10:30:30;27.92;;;11.55;;
43554;SDS011;35085;40.398;-3.702;2022-11-24T10:40:39;24.83;;;7.72;;
43554;SDS011;35085;40.398;-3.702;2022-11-24T10:51:43;15.63;;;5.53;;
43554;SDS011;35085;40.398;-3.702;2022-11-24T11:01:44;18.05;;;4.07;;
43554;SDS011;35085;40.398;-3.702;2022-11-24T11:12:18;12.48;;;3.70;;
43554;SDS011;35085;40.398;-3.702;2022-11-24T11:22:29;12.70;;;3.55;;
43554;SDS011;35085;40.398;-3.702;2022-11-24T11:33:00;14.13;;;3.55;;
43554;SDS011;35085;40.398;-3.702;2022-11-24T11:43:53;20.75;;;3.55;;
43554;SDS011;35085;40.398;-3.702;2022-11-24T11:54:19;14.23;;;2.88;;
43554;SDS011;35085;40.398;-3.702;2022-11-24T12:15:16;4.70;;;1.70;;
43554;SDS011;35085;40.398;-3.702;2022-11-24T12:57:05;8.50;;;1.83;;
43554;SDS011;35085;40.398;-3.702;2022-11-24T13:07:19;9.35;;;3.20;;
43554;SDS011;35085;40.398;-3.702;2022-11-24T13:17:52;6.57;;;1.50;;
43554;SDS011;35085;40.398;-3.702;2022-11-24T13:28:03;7.93;;;1.95;;
43554;SDS011;35085;40.398;-3.702;2022-11-24T13:59:24;5.03;;;1.63;;
43554;SDS011;35085;40.398;-3.702;2022-11-24T14:09:40;8.68;;;3.40;;
43554;SDS011;35085;40.398;-3.702;2022-11-24T14:20:21;9.13;;;2.88;;
43554;SDS011;35085;40.398;-3.702;2022-11-24T14:30:31;9.38;;;3.05;;
43554;SDS011;35085;40.398;-3.702;2022-11-24T14:41:12;14.43;;;5.20;;
43554;SDS011;35085;40.398;-3.702;2022-11-24T14:51:26;15.77;;;4.80;;
43554;SDS011;35085;40.398;-3.702;2022-11-24T15:01:55;14.63;;;4.70;;
43554;SDS011;35085;40.398;-3.702;2022-11-24T15:12:04;12.90;;;4.03;;
43554;SDS011;35085;40.398;-3.702;2022-11-24T15:22:39;6.95;;;1.80;;
43554;SDS011;35085;40.398;-3.702;2022-11-24T15:33:13;4.95;;;2.03;;
43554;SDS011;35085;40.398;-3.702;2022-11-24T15:43:45;8.30;;;2.00;;
43554;SDS011;35085;40.398;-3.702;2022-11-24T15:53:54;4.90;;;1.88;;
43554;SDS011;35085;40.398;-3.702;2022-11-24T16:04:27;7.43;;;2.00;;
43554;SDS011;35085;40.398;-3.702;2022-11-24T16:14:36;5.20;;;2.20;;
43554;SDS011;35085;40.398;-3.702;2022-11-24T16:25:06;3.97;;;1.42;;
43554;SDS011;35085;40.398;-3.702;2022-11-24T16:35:14;7.70;;;2.45;;
43554;SDS011;35085;40.398;-3.702;2022-11-24T16:45:24;4.97;;;1.70;;
43554;SDS011;35085;40.398;-3.702;2022-11-24T16:55:33;8.13;;;1.90;;
43554;SDS011;35085;40.398;-3.702;2022-11-24T17:05:41;5.15;;;2.08;;
43554;SDS011;35085;40.398;-3.702;2022-11-24T17:15:53;5.88;;;1.90;;
43554;SDS011;35085;40.398;-3.702;2022-11-24T17:26:10;6.53;;;2.63;;
43554;SDS011;35085;40.398;-3.702;2022-11-24T17:36:20;8.48;;;3.05;;
43554;SDS011;35085;40.398;-3.702;2022-11-24T17:46:29;5.83;;;1.63;;
43554;SDS011;35085;40.398;-3.702;2022-11-24T17:56:41;5.40;;;2.45;;
43554;SDS011;35085;40.398;-3.702;2022-11-24T18:06:49;5.63;;;2.00;;
43554;SDS011;35085;40.398;-3.702;2022-11-24T18:16:59;4.83;;;1.90;;
43554;SDS011;35085;40.398;-3.702;2022-11-24T18:27:10;6.75;;;2.40;;
43554;SDS011;35085;40.398;-3.702;2022-11-24T18:37:19;5.13;;;1.92;;
43554;SDS011;35085;40.398;-3.702;2022-11-24T18:47:28;9.30;;;2.40;;
43554;SDS011;35085;40.398;-3.702;2022-11-24T18:57:38;4.78;;;1.88;;
43554;SDS011;35085;40.398;-3.702;2022-11-24T19:07:46;5.75;;;2.15;;
43554;SDS011;35085;40.398;-3.702;2022-11-24T19:17:56;4.10;;;1.83;;
43554;SDS011;35085;40.398;-3.702;2022-11-24T19:28:06;7.22;;;2.17;;
43554;SDS011;35085;40.398;-3.702;2022-11-24T19:38:15;3.60;;;2.28;;
43554;SDS011;35085;40.398;-3.702;2022-11-24T19:48:24;6.40;;;2.57;;
43554;SDS011;35085;40.398;-3.702;2022-11-24T19:58:33;7.45;;;2.60;;
43554;SDS011;35085;40.398;-3.702;2022-11-24T20:08:42;6.25;;;2.40;;
43554;SDS011;35085;40.398;-3.702;2022-11-24T20:18:53;4.83;;;2.23;;
43554;SDS011;35085;40.398;-3.702;2022-11-24T20:28:56;5.10;;;1.50;;
43554;SDS011;35085;40.398;-3.702;2022-11-24T20:39:06;6.77;;;2.30;;
43554;SDS011;35085;40.398;-3.702;2022-11-24T20:49:14;4.22;;;2.10;;
43554;SDS011;35085;40.398;-3.702;2022-11-24T20:59:17;2.97;;;1.40;;
43554;SDS011;35085;40.398;-3.702;2022-11-24T21:09:25;2.60;;;1.33;;
43554;SDS011;35085;40.398;-3.702;2022-11-24T21:19:34;4.10;;;1.50;;
43554;SDS011;35085;40.398;-3.702;2022-11-24T21:29:43;3.05;;;1.45;;
43554;SDS011;35085;40.398;-3.702;2022-11-24T21:39:52;2.22;;;1.10;;
43554;SDS011;35085;40.398;-3.702;2022-11-24T21:50:01;1.88;;;1.10;;
43554;SDS011;35085;40.398;-3.702;2022-11-24T22:00:10;2.00;;;0.95;;
43554;SDS011;35085;40.398;-3.702;2022-11-24T22:10:20;2.47;;;0.80;;
43554;SDS011;35085;40.398;-3.702;2022-11-24T22:20:29;2.20;;;0.70;;
43554;SDS011;35085;40.398;-3.702;2022-11-24T22:30:38;1.80;;;0.60;;
43554;SDS011;35085;40.398;-3.702;2022-11-24T22:40:47;2.33;;;0.90;;
43554;SDS011;35085;40.398;-3.702;2022-11-24T22:51:05;1.95;;;1.00;;
43554;SDS011;35085;40.398;-3.702;2022-11-24T23:01:09;4.45;;;1.90;;
43554;SDS011;35085;40.398;-3.702;2022-11-24T23:11:13;2.35;;;1.00;;
43554;SDS011;35085;40.398;-3.702;2022-11-24T23:21:23;1.98;;;0.70;;
43554;SDS011;35085;40.398;-3.702;2022-11-24T23:31:46;2.40;;;0.57;;
43554;SDS011;35085;40.398;-3.702;2022-11-24T23:42:02;1.85;;;0.82;;
43554;SDS011;35085;40.398;-3.702;2022-11-24T23:52:24;2.20;;;0.98;;
